Terminal Aerodrome Forecast
Issued by NWS

Home | Current Version | Previous Version | Text Only | Print | Product List | Glossary On
Versions: 1 2 3 4 5 6 7 8 9 10 11 12 13 14 15 16 17 18 19 20
000
FTUS43 KGRB 231953 AAA
TAFRHI
TAF AMD
KRHI 231953Z 2320/2418 27013G23KT P6SM VCSH BKN050
      TEMPO 2321/2324 3SM SHRA BKN035
     FM240000 30009G15KT P6SM VCSH BKN050
     FM240200 29008KT P6SM SCT060
     FM241500 29011G19KT P6SM VCSH BKN035=

USA.gov is the U.S. government's official web portal to all federal, state and local government web resources and services.